www.cux-wetter.de
Wetterdaten: Woche 24.09.07 - 30.09.07 (KW39)
Datum Zeit Temp. A. Feuchte A. Luftdruck Regen Wind Richtung Sonnenschein Solar Taupunkt Windchill Windben
24.09.2007 00:00 14,7 C 90 % 1016,5 hPa 0,0 l/m 6,3 km/h (2 Bft) S 0,00 h 0 W/m 13,0 C 14,4 C 6,3 km/h (2 Bft)
24.09.2007 01:00 14,6 C 91 % 1015,9 hPa 0,0 l/m 7,9 km/h (2 Bft) S 0,00 h 0 W/m 13,2 C 13,7 C 7,9 km/h (2 Bft)
24.09.2007 02:00 15,4 C 90 % 1015,5 hPa 0,3 l/m 9,0 km/h (2 Bft) S 0,00 h 0 W/m 13,7 C 14,1 C 9,0 km/h (2 Bft)
24.09.2007 03:00 15,5 C 89 % 1014,7 hPa 0,0 l/m 10,2 km/h (2 Bft) S 0,00 h 0 W/m 13,7 C 13,6 C 10,2 km/h (2 Bft)
24.09.2007 04:00 15,7 C 88 % 1013,7 hPa 0,0 l/m 11,5 km/h (2 Bft) S 0,00 h 0 W/m 13,8 C 13,3 C 11,5 km/h (2 Bft)
24.09.2007 05:00 15,6 C 88 % 1012,8 hPa 0,0 l/m 11,4 km/h (2 Bft) S 0,00 h 0 W/m 13,7 C 13,2 C 11,4 km/h (2 Bft)
24.09.2007 06:00 15,6 C 88 % 1012,5 hPa 0,0 l/m 10,7 km/h (2 Bft) S 0,00 h 0 W/m 13,7 C 13,6 C 10,7 km/h (2 Bft)
24.09.2007 07:00 15,6 C 88 % 1011,7 hPa 0,0 l/m 11,5 km/h (2 Bft) S 0,00 h 0 W/m 13,7 C 13,2 C 11,5 km/h (2 Bft)
24.09.2007 08:00 15,7 C 87 % 1011,5 hPa 0,0 l/m 12,5 km/h (2 Bft) S 0,00 h 0 W/m 13,5 C 12,9 C 12,5 km/h (2 Bft)
24.09.2007 09:00 15,8 C 86 % 1010,5 hPa 0,0 l/m 17,0 km/h (3 Bft) S 0,00 h 0 W/m 13,4 C 11,6 C 17,0 km/h (3 Bft)
24.09.2007 10:00 17,8 C 82 % 1010,2 hPa 0,0 l/m 15,7 km/h (3 Bft) S-SW 0,00 h 0 W/m 14,7 C 14,4 C 15,7 km/h (3 Bft)
24.09.2007 11:00 19,9 C 75 % 1009,4 hPa 0,0 l/m 20,3 km/h (4 Bft) S-SW 0,00 h 0 W/m 15,3 C 16,1 C 20,3 km/h (4 Bft)
24.09.2007 12:00 21,4 C 69 % 1008,5 hPa 0,0 l/m 26,2 km/h (4 Bft) SW 0,00 h 0 W/m 15,3 C 17,1 C 26,2 km/h (4 Bft)
24.09.2007 13:00 21,9 C 62 % 1007,9 hPa 0,0 l/m 26,8 km/h (4 Bft) SW 0,00 h 0 W/m 14,3 C 17,8 C 26,8 km/h (4 Bft)
24.09.2007 14:00 22,2 C 57 % 1007,1 hPa 0,0 l/m 30,7 km/h (5 Bft) SW 0,00 h 0 W/m 13,1 C 17,7 C 30,7 km/h (5 Bft)
24.09.2007 15:00 22,1 C 55 % 1006,5 hPa 0,0 l/m 32,4 km/h (5 Bft) S-SW 0,00 h 0 W/m 12,7 C 17,5 C 32,4 km/h (5 Bft)
24.09.2007 16:00 20,6 C 59 % 1006,5 hPa 0,0 l/m 24,5 km/h (4 Bft) SW 0,00 h 0 W/m 12,4 C 16,4 C 24,5 km/h (4 Bft)
24.09.2007 17:00 19,4 C 66 % 1006,9 hPa 0,0 l/m 28,1 km/h (5 Bft) W 0,00 h 0 W/m 12,8 C 14,2 C 28,1 km/h (5 Bft)
24.09.2007 18:00 16,7 C 82 % 1007,8 hPa 1,5 l/m 33,8 km/h (5 Bft) W 0,00 h 0 W/m 13,6 C 9,6 C 33,8 km/h (5 Bft)
24.09.2007 19:00 13,9 C 89 % 1008,5 hPa 0,3 l/m 26,6 km/h (4 Bft) W 0,00 h 0 W/m 12,1 C 6,9 C 26,6 km/h (4 Bft)
24.09.2007 20:00 13,8 C 89 % 1009,3 hPa 0,0 l/m 24,2 km/h (4 Bft) W 0,00 h 0 W/m 12,1 C 7,2 C 24,2 km/h (4 Bft)
24.09.2007 21:00 13,6 C 88 % 1009,5 hPa 0,0 l/m 23,5 km/h (4 Bft) W 0,00 h 0 W/m 11,7 C 7,2 C 23,5 km/h (4 Bft)
24.09.2007 22:00 13,3 C 89 % 1009,5 hPa 0,0 l/m 22,5 km/h (4 Bft) W 0,00 h 0 W/m 11,6 C 7,0 C 22,5 km/h (4 Bft)
24.09.2007 23:00 12,7 C 91 % 1009,5 hPa 0,0 l/m 15,8 km/h (3 Bft) W-SW 0,00 h 0 W/m 11,3 C 8,4 C 15,8 km/h (3 Bft)
25.09.2007 00:00 11,9 C 92 % 1009,5 hPa 0,0 l/m 10,3 km/h (2 Bft) SW 0,00 h 0 W/m 10,7 C 9,6 C 10,3 km/h (2 Bft)
25.09.2007 01:00 11,4 C 93 % 1009,5 hPa 0,0 l/m 12,8 km/h (3 Bft) SW 0,00 h 0 W/m 10,3 C 7,8 C 12,8 km/h (3 Bft)
25.09.2007 02:00 11,4 C 94 % 1009,5 hPa 0,0 l/m 14,0 km/h (3 Bft) SW 0,00 h 0 W/m 10,5 C 7,3 C 14,0 km/h (3 Bft)
25.09.2007 03:00 11,7 C 94 % 1009,0 hPa 0,0 l/m 16,0 km/h (3 Bft) W-SW 0,00 h 0 W/m 10,7 C 6,8 C 16,0 km/h (3 Bft)
25.09.2007 04:00 11,9 C 93 % 1008,5 hPa 0,0 l/m 15,7 km/h (3 Bft) W-SW 0,00 h 0 W/m 10,8 C 7,2 C 15,7 km/h (3 Bft)
25.09.2007 05:00 11,9 C 93 % 1008,1 hPa 0,0 l/m 14,3 km/h (3 Bft) W-SW 0,00 h 0 W/m 10,8 C 7,8 C 14,3 km/h (3 Bft)
25.09.2007 06:00 11,8 C 93 % 1007,5 hPa 0,0 l/m 17,0 km/h (3 Bft) W-SW 0,00 h 0 W/m 10,7 C 6,7 C 17,0 km/h (3 Bft)
25.09.2007 07:00 11,6 C 93 % 1007,7 hPa 0,3 l/m 16,9 km/h (3 Bft) W-SW 0,00 h 0 W/m 10,6 C 6,5 C 16,9 km/h (3 Bft)
25.09.2007 08:00 11,3 C 93 % 1008,5 hPa 0,0 l/m 21,1 km/h (4 Bft) W-SW 0,00 h 0 W/m 10,3 C 4,8 C 21,1 km/h (4 Bft)
25.09.2007 09:00 11,8 C 92 % 1008,5 hPa 0,0 l/m 26,0 km/h (4 Bft) W-SW 0,00 h 0 W/m 10,4 C 4,1 C 26,0 km/h (4 Bft)
25.09.2007 10:00 12,9 C 86 % 1008,5 hPa 0,0 l/m 25,7 km/h (4 Bft) W 0,00 h 0 W/m 10,7 C 5,7 C 25,7 km/h (4 Bft)
25.09.2007 11:00 13,8 C 82 % 1008,5 hPa 0,0 l/m 28,9 km/h (5 Bft) W-SW 0,00 h 0 W/m 10,8 C 6,2 C 28,9 km/h (5 Bft)
25.09.2007 12:00 15,1 C 77 % 1008,5 hPa 0,0 l/m 28,3 km/h (5 Bft) W-SW 0,00 h 0 W/m 11,1 C 8,1 C 28,3 km/h (5 Bft)
25.09.2007 13:00 15,4 C 73 % 1008,5 hPa 0,0 l/m 31,2 km/h (5 Bft) W 0,00 h 0 W/m 10,5 C 8,1 C 31,2 km/h (5 Bft)
25.09.2007 14:00 14,7 C 75 % 1008,5 hPa 0,0 l/m 27,0 km/h (5 Bft) W 0,00 h 0 W/m 10,3 C 7,8 C 27,0 km/h (5 Bft)
25.09.2007 15:00 14,3 C 77 % 1008,5 hPa 0,0 l/m 28,3 km/h (5 Bft) W 0,00 h 0 W/m 10,3 C 7,0 C 28,3 km/h (5 Bft)
25.09.2007 16:00 14,5 C 78 % 1008,5 hPa 0,0 l/m 28,1 km/h (5 Bft) W 0,00 h 0 W/m 10,6 C 7,4 C 28,1 km/h (5 Bft)
25.09.2007 17:00 14,2 C 80 % 1008,7 hPa 0,0 l/m 23,3 km/h (4 Bft) W 0,00 h 0 W/m 10,8 C 7,9 C 23,3 km/h (4 Bft)
25.09.2007 18:00 13,5 C 83 % 1009,5 hPa 0,3 l/m 18,2 km/h (3 Bft) W 0,00 h 0 W/m 10,6 C 8,4 C 18,2 km/h (3 Bft)
25.09.2007 19:00 11,8 C 86 % 1009,5 hPa 0,0 l/m 8,1 km/h (2 Bft) W-SW 0,00 h 0 W/m 9,6 C 10,6 C 8,1 km/h (2 Bft)
25.09.2007 20:00 11,5 C 90 % 1009,5 hPa 0,0 l/m 12,2 km/h (2 Bft) W-SW 0,00 h 0 W/m 9,8 C 8,2 C 12,2 km/h (2 Bft)
25.09.2007 21:00 11,5 C 91 % 1009,5 hPa 0,0 l/m 14,9 km/h (3 Bft) W-SW 0,00 h 0 W/m 10,1 C 7,1 C 14,9 km/h (3 Bft)
25.09.2007 22:00 10,8 C 92 % 1009,7 hPa 0,0 l/m 14,0 km/h (3 Bft) W-SW 0,00 h 0 W/m 9,5 C 6,5 C 14,0 km/h (3 Bft)
25.09.2007 23:00 10,6 C 94 % 1010,5 hPa 0,0 l/m 12,6 km/h (2 Bft) W-SW 0,00 h 0 W/m 9,7 C 7,0 C 12,6 km/h (2 Bft)
26.09.2007 00:00 11,3 C 94 % 1010,5 hPa 0,0 l/m 16,7 km/h (3 Bft) W-SW 0,00 h 0 W/m 10,4 C 6,1 C 16,7 km/h (3 Bft)
26.09.2007 01:00 11,4 C 92 % 1009,8 hPa 0,0 l/m 22,0 km/h (4 Bft) W 0,00 h 0 W/m 10,2 C 4,6 C 22,0 km/h (4 Bft)
26.09.2007 02:00 11,4 C 93 % 1009,5 hPa 0,0 l/m 19,3 km/h (3 Bft) W 0,00 h 0 W/m 10,3 C 5,4 C 19,3 km/h (3 Bft)
26.09.2007 03:00 11,8 C 93 % 1009,5 hPa 0,9 l/m 20,8 km/h (4 Bft) W 0,00 h 0 W/m 10,7 C 5,4 C 20,8 km/h (4 Bft)
26.09.2007 04:00 11,7 C 95 % 1009,5 hPa 0,6 l/m 12,4 km/h (2 Bft) W 0,00 h 0 W/m 10,8 C 8,3 C 12,4 km/h (2 Bft)
26.09.2007 05:00 11,5 C 95 % 1009,5 hPa 0,3 l/m 10,6 km/h (2 Bft) W 0,00 h 0 W/m 10,8 C 9,0 C 10,6 km/h (2 Bft)
26.09.2007 06:00 11,3 C 95 % 1009,5 hPa 0,0 l/m 5,8 km/h (2 Bft) W 0,00 h 0 W/m 10,5 C 10,9 C 5,8 km/h (2 Bft)
26.09.2007 07:00 10,6 C 95 % 1009,5 hPa 0,0 l/m 6,7 km/h (2 Bft) W-SW 0,00 h 0 W/m 9,9 C 10,1 C 6,7 km/h (2 Bft)
26.09.2007 08:00 11,0 C 96 % 1009,8 hPa 0,0 l/m 8,3 km/h (2 Bft) W 0,00 h 0 W/m 10,3 C 9,8 C 8,3 km/h (2 Bft)
26.09.2007 09:00 11,9 C 93 % 1010,3 hPa 0,0 l/m 11,0 km/h (2 Bft) W 0,00 h 0 W/m 10,8 C 9,2 C 11,0 km/h (2 Bft)
26.09.2007 10:00 13,6 C 83 % 1010,5 hPa 0,0 l/m 12,5 km/h (2 Bft) W 0,00 h 0 W/m 10,7 C 10,6 C 12,5 km/h (2 Bft)
26.09.2007 11:00 14,9 C 70 % 1010,5 hPa 0,0 l/m 10,1 km/h (2 Bft) W 0,00 h 0 W/m 9,6 C 13,0 C 10,1 km/h (2 Bft)
26.09.2007 12:00 15,2 C 70 % 1010,5 hPa 0,0 l/m 9,9 km/h (2 Bft) W-NW 0,00 h 0 W/m 9,8 C 13,5 C 9,9 km/h (2 Bft)
26.09.2007 13:00 14,7 C 73 % 1010,5 hPa 0,0 l/m 7,7 km/h (2 Bft) NW 0,00 h 0 W/m 9,9 C 14,0 C 7,7 km/h (2 Bft)
26.09.2007 14:00 15,2 C 73 % 1010,5 hPa 0,0 l/m 7,4 km/h (2 Bft) N 0,00 h 0 W/m 10,3 C 14,4 C 7,4 km/h (2 Bft)
26.09.2007 15:00 15,6 C 69 % 1011,1 hPa 0,0 l/m 8,5 km/h (2 Bft) NO 0,00 h 0 W/m 9,8 C 14,5 C 8,5 km/h (2 Bft)
26.09.2007 16:00 14,7 C 73 % 1011,5 hPa 0,0 l/m 4,7 km/h (1 Bft) NO 0,00 h 0 W/m 9,9 C 14,5 C 4,7 km/h (1 Bft)
26.09.2007 17:00 14,4 C 74 % 1011,8 hPa 0,0 l/m 6,0 km/h (2 Bft) SO 0,00 h 0 W/m 9,8 C 13,7 C 6,0 km/h (2 Bft)
26.09.2007 18:00 14,0 C 75 % 1012,0 hPa 0,0 l/m 1,8 km/h (1 Bft) NO 0,00 h 0 W/m 9,7 C 14,0 C 1,8 km/h (1 Bft)
26.09.2007 19:00 12,4 C 80 % 1012,5 hPa 0,0 l/m 0,1 km/h (0 Bft) N 0,00 h 0 W/m 9,0 C 12,4 C 0,1 km/h (0 Bft)
26.09.2007 20:00 12,0 C 84 % 1013,3 hPa 0,0 l/m 0,5 km/h (0 Bft) O-SO 0,00 h 0 W/m 9,4 C 12,0 C 0,5 km/h (0 Bft)
26.09.2007 21:00 10,8 C 86 % 1014,1 hPa 0,0 l/m 0,0 km/h (0 Bft) N 0,00 h 0 W/m 8,5 C 10,8 C 0,0 km/h (0 Bft)
26.09.2007 22:00 9,8 C 88 % 1014,5 hPa 0,0 l/m 0,0 km/h (0 Bft) N 0,00 h 0 W/m 7,9 C 9,8 C 0,0 km/h (0 Bft)
26.09.2007 23:00 9,4 C 90 % 1014,5 hPa 0,0 l/m 0,0 km/h (0 Bft) N 0,00 h 0 W/m 7,8 C 9,4 C 0,0 km/h (0 Bft)
27.09.2007 00:00 9,2 C 91 % 1014,5 hPa 0,0 l/m 0,8 km/h (0 Bft) SO 0,00 h 0 W/m 7,8 C 9,2 C 0,8 km/h (0 Bft)
27.09.2007 01:00 9,0 C 92 % 1014,5 hPa 0,0 l/m 0,5 km/h (0 Bft) NO 0,00 h 0 W/m 7,7 C 9,0 C 0,5 km/h (0 Bft)
27.09.2007 02:00 9,0 C 93 % 1014,5 hPa 0,0 l/m 2,9 km/h (1 Bft) O-NO 0,00 h 0 W/m 8,0 C 8,9 C 2,9 km/h (1 Bft)
27.09.2007 03:00 9,1 C 93 % 1014,5 hPa 0,0 l/m 1,8 km/h (1 Bft) O 0,00 h 0 W/m 8,1 C 9,1 C 1,8 km/h (1 Bft)
27.09.2007 04:00 8,7 C 94 % 1014,5 hPa 0,0 l/m 1,2 km/h (1 Bft) N-NO 0,00 h 0 W/m 7,8 C 8,7 C 1,2 km/h (1 Bft)
27.09.2007 05:00 9,3 C 95 % 1014,6 hPa 0,3 l/m 5,3 km/h (1 Bft) NO 0,00 h 0 W/m 8,5 C 8,8 C 5,3 km/h (1 Bft)
27.09.2007 06:00 9,3 C 95 % 1014,7 hPa 0,0 l/m 4,2 km/h (1 Bft) N-NO 0,00 h 0 W/m 8,5 C 9,0 C 4,2 km/h (1 Bft)
27.09.2007 07:00 9,2 C 95 % 1015,5 hPa 0,0 l/m 8,1 km/h (2 Bft) N-NO 0,00 h 0 W/m 8,5 C 7,7 C 8,1 km/h (2 Bft)
27.09.2007 08:00 9,9 C 96 % 1015,5 hPa 0,0 l/m 10,7 km/h (2 Bft) NO 0,00 h 0 W/m 9,4 C 7,2 C 10,7 km/h (2 Bft)
27.09.2007 09:00 11,0 C 97 % 1015,5 hPa 0,0 l/m 12,4 km/h (2 Bft) N 0,00 h 0 W/m 10,5 C 7,7 C 12,4 km/h (2 Bft)
27.09.2007 10:00 12,3 C 97 % 1015,6 hPa 0,0 l/m 16,2 km/h (3 Bft) N-NO 0,00 h 0 W/m 11,8 C 7,5 C 16,2 km/h (3 Bft)
27.09.2007 11:00 15,1 C 88 % 1015,5 hPa 0,3 l/m 15,5 km/h (3 Bft) NO 0,00 h 0 W/m 13,1 C 11,2 C 15,5 km/h (3 Bft)
27.09.2007 12:00 16,5 C 78 % 1015,5 hPa 0,0 l/m 16,3 km/h (3 Bft) NO 0,00 h 0 W/m 12,6 C 12,6 C 16,3 km/h (3 Bft)
27.09.2007 13:00 17,4 C 73 % 1015,5 hPa 0,0 l/m 18,2 km/h (3 Bft) NO 0,00 h 0 W/m 12,5 C 13,3 C 18,2 km/h (3 Bft)
27.09.2007 14:00 17,6 C 69 % 1014,5 hPa 0,0 l/m 17,5 km/h (3 Bft) NO 0,00 h 0 W/m 11,9 C 13,7 C 17,5 km/h (3 Bft)
27.09.2007 15:00 16,8 C 70 % 1014,4 hPa 0,0 l/m 19,8 km/h (3 Bft) NO 0,00 h 0 W/m 11,2 C 12,2 C 19,8 km/h (3 Bft)
27.09.2007 16:00 16,1 C 72 % 1013,5 hPa 0,0 l/m 20,3 km/h (4 Bft) N-NO 0,00 h 0 W/m 11,1 C 11,2 C 20,3 km/h (4 Bft)
27.09.2007 17:00 15,2 C 75 % 1013,5 hPa 0,0 l/m 22,9 km/h (4 Bft) NO 0,00 h 0 W/m 10,7 C 9,4 C 22,9 km/h (4 Bft)
27.09.2007 18:00 14,2 C 78 % 1013,5 hPa 0,0 l/m 22,5 km/h (4 Bft) NO 0,00 h 0 W/m 10,5 C 8,2 C 22,5 km/h (4 Bft)
27.09.2007 19:00 13,1 C 82 % 1013,5 hPa 0,0 l/m 19,7 km/h (3 Bft) N-NO 0,00 h 0 W/m 10,0 C 7,4 C 19,7 km/h (3 Bft)
27.09.2007 20:00 12,8 C 83 % 1013,5 hPa 0,0 l/m 18,7 km/h (3 Bft) N-NO 0,00 h 0 W/m 10,0 C 7,3 C 18,7 km/h (3 Bft)
27.09.2007 21:00 12,7 C 86 % 1012,8 hPa 0,0 l/m 20,7 km/h (4 Bft) N-NO 0,00 h 0 W/m 10,3 C 6,7 C 20,7 km/h (4 Bft)
27.09.2007 22:00 13,0 C 86 % 1012,4 hPa 0,0 l/m 23,0 km/h (4 Bft) NO 0,00 h 0 W/m 10,7 C 6,4 C 23,0 km/h (4 Bft)
27.09.2007 23:00 13,0 C 87 % 1011,6 hPa 0,0 l/m 22,0 km/h (4 Bft) NO 0,00 h 0 W/m 10,9 C 6,7 C 22,0 km/h (4 Bft)
28.09.2007 00:00 13,3 C 86 % 1010,9 hPa 0,0 l/m 26,4 km/h (4 Bft) N-NO 0,00 h 0 W/m 11,1 C 6,1 C 26,4 km/h (4 Bft)
28.09.2007 01:00 13,3 C 88 % 1010,5 hPa 0,3 l/m 27,9 km/h (5 Bft) NO 0,00 h 0 W/m 11,4 C 5,8 C 27,9 km/h (5 Bft)
28.09.2007 02:00 12,9 C 94 % 1009,7 hPa 0,9 l/m 23,1 km/h (4 Bft) N-NO 0,00 h 0 W/m 11,9 C 6,2 C 23,1 km/h (4 Bft)
28.09.2007 03:00 12,8 C 96 % 1009,4 hPa 0,9 l/m 23,7 km/h (4 Bft) N-NO 0,00 h 0 W/m 12,1 C 6,0 C 23,7 km/h (4 Bft)
28.09.2007 04:00 12,9 C 96 % 1008,5 hPa 2,1 l/m 24,7 km/h (4 Bft) N-NO 0,00 h 0 W/m 12,2 C 5,8 C 24,7 km/h (4 Bft)
28.09.2007 05:00 13,0 C 97 % 1008,5 hPa 0,0 l/m 25,6 km/h (4 Bft) NO 0,00 h 0 W/m 12,5 C 5,9 C 25,6 km/h (4 Bft)
28.09.2007 06:00 13,1 C 96 % 1008,5 hPa 0,0 l/m 28,5 km/h (5 Bft) O-NO 0,00 h 0 W/m 12,5 C 5,4 C 28,5 km/h (5 Bft)
28.09.2007 07:00 13,2 C 96 % 1008,5 hPa 0,0 l/m 25,8 km/h (4 Bft) NO 0,00 h 0 W/m 12,6 C 6,0 C 25,8 km/h (4 Bft)
28.09.2007 08:00 13,4 C 95 % 1008,5 hPa 0,0 l/m 24,6 km/h (4 Bft) N-NO 0,00 h 0 W/m 12,7 C 6,6 C 24,6 km/h (4 Bft)
28.09.2007 09:00 13,5 C 94 % 1008,5 hPa 0,0 l/m 23,6 km/h (4 Bft) NO 0,00 h 0 W/m 12,6 C 7,0 C 23,6 km/h (4 Bft)
28.09.2007 10:00 13,4 C 96 % 1008,5 hPa 0,3 l/m 22,8 km/h (4 Bft) N-NO 0,00 h 0 W/m 12,7 C 7,1 C 22,8 km/h (4 Bft)
28.09.2007 11:00 13,4 C 96 % 1008,5 hPa 0,0 l/m 21,0 km/h (4 Bft) N-NO 0,00 h 0 W/m 12,8 C 7,5 C 21,0 km/h (4 Bft)
28.09.2007 12:00 13,5 C 96 % 1008,5 hPa 0,3 l/m 23,6 km/h (4 Bft) NO 0,00 h 0 W/m 12,9 C 7,0 C 23,6 km/h (4 Bft)
28.09.2007 13:00 13,5 C 97 % 1008,1 hPa 1,5 l/m 19,8 km/h (4 Bft) N-NO 0,00 h 0 W/m 12,9 C 7,9 C 19,8 km/h (4 Bft)
28.09.2007 14:00 13,4 C 97 % 1007,5 hPa 0,6 l/m 23,5 km/h (4 Bft) NO 0,00 h 0 W/m 12,9 C 6,9 C 23,5 km/h (4 Bft)
28.09.2007 15:00 13,2 C 96 % 1006,5 hPa 0,0 l/m 25,2 km/h (4 Bft) N-NO 0,00 h 0 W/m 12,6 C 6,2 C 25,2 km/h (4 Bft)
28.09.2007 16:00 13,2 C 96 % 1006,5 hPa 0,0 l/m 25,1 km/h (4 Bft) NO 0,00 h 0 W/m 12,5 C 6,2 C 25,1 km/h (4 Bft)
28.09.2007 17:00 13,0 C 96 % 1006,5 hPa 0,3 l/m 20,7 km/h (4 Bft) N-NO 0,00 h 0 W/m 12,4 C 7,0 C 20,7 km/h (4 Bft)
28.09.2007 18:00 13,0 C 97 % 1006,5 hPa 0,3 l/m 21,6 km/h (4 Bft) N-NO 0,00 h 0 W/m 12,5 C 6,8 C 21,6 km/h (4 Bft)
28.09.2007 19:00 13,0 C 97 % 1006,5 hPa 0,0 l/m 20,7 km/h (4 Bft) N-NO 0,00 h 0 W/m 12,5 C 7,0 C 20,7 km/h (4 Bft)
28.09.2007 20:00 13,0 C 98 % 1006,3 hPa 0,3 l/m 20,3 km/h (4 Bft) N-NO 0,00 h 0 W/m 12,7 C 7,2 C 20,3 km/h (4 Bft)
28.09.2007 21:00 13,0 C 98 % 1005,7 hPa 0,0 l/m 19,2 km/h (3 Bft) N-NO 0,00 h 0 W/m 12,6 C 7,4 C 19,2 km/h (3 Bft)
28.09.2007 22:00 12,6 C 98 % 1004,8 hPa 0,3 l/m 23,7 km/h (4 Bft) N-NO 0,00 h 0 W/m 12,3 C 5,7 C 23,7 km/h (4 Bft)
28.09.2007 23:00 12,4 C 98 % 1004,5 hPa 0,0 l/m 25,3 km/h (4 Bft) N-NO 0,00 h 0 W/m 12,1 C 5,1 C 25,3 km/h (4 Bft)
29.09.2007 00:00 12,4 C 98 % 1003,6 hPa 0,0 l/m 26,6 km/h (4 Bft) N-NO 0,00 h 0 W/m 12,1 C 4,8 C 26,6 km/h (4 Bft)
29.09.2007 01:00 12,4 C 98 % 1002,8 hPa 1,2 l/m 28,5 km/h (5 Bft) N-NO 0,00 h 0 W/m 12,1 C 4,4 C 28,5 km/h (5 Bft)
29.09.2007 02:00 12,2 C 98 % 1002,0 hPa 1,5 l/m 28,6 km/h (5 Bft) N-NO 0,00 h 0 W/m 11,9 C 4,1 C 28,6 km/h (5 Bft)
29.09.2007 03:00 12,2 C 98 % 1001,5 hPa 1,8 l/m 25,6 km/h (4 Bft) N-NO 0,00 h 0 W/m 11,9 C 4,7 C 25,6 km/h (4 Bft)
29.09.2007 04:00 12,2 C 98 % 1000,7 hPa 3,0 l/m 26,1 km/h (4 Bft) N-NO 0,00 h 0 W/m 11,9 C 4,6 C 26,1 km/h (4 Bft)
29.09.2007 05:00 12,1 C 99 % 1000,4 hPa 0,3 l/m 23,6 km/h (4 Bft) N-NO 0,00 h 0 W/m 12,0 C 5,1 C 23,6 km/h (4 Bft)
29.09.2007 06:00 12,2 C 99 % 999,6 hPa 0,0 l/m 16,7 km/h (3 Bft) N-NO 0,00 h 0 W/m 12,1 C 7,2 C 16,7 km/h (3 Bft)
29.09.2007 07:00 12,5 C 99 % 999,5 hPa 0,0 l/m 15,5 km/h (3 Bft) N-NO 0,00 h 0 W/m 12,3 C 8,0 C 15,5 km/h (3 Bft)
29.09.2007 08:00 13,0 C 99 % 999,9 hPa 0,0 l/m 13,1 km/h (3 Bft) N-NO 0,00 h 0 W/m 12,8 C 9,6 C 13,1 km/h (3 Bft)
29.09.2007 09:00 13,6 C 98 % 1000,0 hPa 0,0 l/m 9,6 km/h (2 Bft) N-NO 0,00 h 0 W/m 13,3 C 11,7 C 9,6 km/h (2 Bft)
29.09.2007 10:00 13,9 C 98 % 1000,5 hPa 0,9 l/m 9,5 km/h (2 Bft) N-NO 0,00 h 0 W/m 13,6 C 12,0 C 9,5 km/h (2 Bft)
29.09.2007 11:00 15,9 C 97 % 1000,5 hPa 0,0 l/m 8,6 km/h (2 Bft) N 0,00 h 0 W/m 15,5 C 14,6 C 8,6 km/h (2 Bft)
29.09.2007 12:00 16,0 C 94 % 1000,5 hPa 0,0 l/m 7,2 km/h (2 Bft) N-NO 0,00 h 0 W/m 15,1 C 15,3 C 7,2 km/h (2 Bft)
29.09.2007 13:00 17,6 C 88 % 1000,5 hPa 0,0 l/m 8,4 km/h (2 Bft) N 0,00 h 0 W/m 15,5 C 16,6 C 8,4 km/h (2 Bft)
29.09.2007 14:00 17,9 C 82 % 1000,5 hPa 0,0 l/m 11,2 km/h (2 Bft) N-NW 0,00 h 0 W/m 14,7 C 16,0 C 11,2 km/h (2 Bft)
29.09.2007 15:00 15,8 C 84 % 1001,5 hPa 0,0 l/m 9,4 km/h (2 Bft) N-NO 0,00 h 0 W/m 13,1 C 14,3 C 9,4 km/h (2 Bft)
29.09.2007 16:00 15,5 C 84 % 1001,5 hPa 0,0 l/m 9,2 km/h (2 Bft) N 0,00 h 0 W/m 12,7 C 14,0 C 9,2 km/h (2 Bft)
29.09.2007 17:00 15,4 C 85 % 1001,8 hPa 0,0 l/m 8,7 km/h (2 Bft) N 0,00 h 0 W/m 12,9 C 14,2 C 8,7 km/h (2 Bft)
29.09.2007 18:00 14,8 C 88 % 1002,5 hPa 0,0 l/m 5,3 km/h (1 Bft) NW 0,00 h 0 W/m 12,8 C 14,5 C 5,3 km/h (1 Bft)
29.09.2007 19:00 14,1 C 91 % 1002,9 hPa 0,0 l/m 1,9 km/h (1 Bft) W 0,00 h 0 W/m 12,6 C 14,1 C 1,9 km/h (1 Bft)
29.09.2007 20:00 13,6 C 93 % 1003,5 hPa 0,3 l/m 3,4 km/h (1 Bft) W 0,00 h 0 W/m 12,5 C 13,6 C 3,4 km/h (1 Bft)
29.09.2007 21:00 13,6 C 96 % 1003,8 hPa 0,0 l/m 9,1 km/h (2 Bft) W-SW 0,00 h 0 W/m 13,0 C 12,1 C 9,1 km/h (2 Bft)
29.09.2007 22:00 13,6 C 97 % 1004,7 hPa 1,8 l/m 13,6 km/h (3 Bft) W 0,00 h 0 W/m 13,2 C 10,1 C 13,6 km/h (3 Bft)
29.09.2007 23:00 13,0 C 97 % 1005,5 hPa 0,6 l/m 14,8 km/h (3 Bft) W 0,00 h 0 W/m 12,5 C 9,1 C 14,8 km/h (3 Bft)
30.09.2007 00:00 13,2 C 97 % 1005,9 hPa 0,0 l/m 23,5 km/h (4 Bft) W-SW 0,00 h 0 W/m 12,7 C 6,5 C 23,5 km/h (4 Bft)
30.09.2007 01:00 13,0 C 97 % 1006,5 hPa 0,0 l/m 22,5 km/h (4 Bft) W-SW 0,00 h 0 W/m 12,6 C 6,6 C 22,5 km/h (4 Bft)
30.09.2007 02:00 13,0 C 97 % 1007,4 hPa 0,0 l/m 24,2 km/h (4 Bft) W-SW 0,00 h 0 W/m 12,5 C 6,1 C 24,2 km/h (4 Bft)
30.09.2007 03:00 13,2 C 98 % 1007,6 hPa 0,0 l/m 24,3 km/h (4 Bft) W-SW 0,00 h 0 W/m 12,8 C 6,3 C 24,3 km/h (4 Bft)
30.09.2007 04:00 13,2 C 97 % 1008,4 hPa 0,0 l/m 27,0 km/h (4 Bft) W-SW 0,00 h 0 W/m 12,8 C 5,8 C 27,0 km/h (4 Bft)
30.09.2007 05:00 13,2 C 97 % 1008,7 hPa 0,0 l/m 22,4 km/h (4 Bft) W-SW 0,00 h 0 W/m 12,8 C 6,9 C 22,4 km/h (4 Bft)
30.09.2007 06:00 13,6 C 96 % 1009,7 hPa 0,0 l/m 18,3 km/h (3 Bft) W-NW 0,00 h 0 W/m 12,9 C 8,5 C 18,3 km/h (3 Bft)
30.09.2007 07:00 13,8 C 93 % 1010,9 hPa 0,0 l/m 16,6 km/h (3 Bft) W-NW 0,00 h 0 W/m 12,7 C 9,2 C 16,6 km/h (3 Bft)
30.09.2007 08:00 13,7 C 94 % 1012,3 hPa 0,3 l/m 16,5 km/h (3 Bft) W 0,00 h 0 W/m 12,8 C 9,3 C 16,5 km/h (3 Bft)
30.09.2007 09:00 14,1 C 94 % 1013,4 hPa 0,0 l/m 22,3 km/h (4 Bft) W 0,00 h 0 W/m 13,1 C 8,1 C 22,3 km/h (4 Bft)
30.09.2007 10:00 15,0 C 90 % 1014,5 hPa 0,0 l/m 19,3 km/h (3 Bft) W 0,00 h 0 W/m 13,4 C 10,0 C 19,3 km/h (3 Bft)
30.09.2007 11:00 15,6 C 87 % 1015,5 hPa 0,0 l/m 23,1 km/h (4 Bft) W 0,00 h 0 W/m 13,3 C 9,8 C 23,1 km/h (4 Bft)
30.09.2007 12:00 15,6 C 85 % 1016,3 hPa 0,0 l/m 22,6 km/h (4 Bft) W 0,00 h 0 W/m 13,0 C 9,9 C 22,6 km/h (4 Bft)
30.09.2007 13:00 14,7 C 91 % 1017,1 hPa 0,3 l/m 27,3 km/h (5 Bft) W 0,00 h 0 W/m 13,2 C 7,8 C 27,3 km/h (5 Bft)
30.09.2007 14:00 14,8 C 91 % 1017,5 hPa 0,0 l/m 26,9 km/h (4 Bft) W 0,00 h 0 W/m 13,3 C 8,0 C 26,9 km/h (4 Bft)
30.09.2007 15:00 14,5 C 90 % 1018,3 hPa 0,0 l/m 21,4 km/h (4 Bft) W 0,00 h 0 W/m 12,9 C 8,9 C 21,4 km/h (4 Bft)
30.09.2007 16:00 13,9 C 91 % 1018,5 hPa 0,3 l/m 19,4 km/h (3 Bft) W-NW 0,00 h 0 W/m 12,4 C 8,7 C 19,4 km/h (3 Bft)
30.09.2007 17:00 14,1 C 88 % 1019,4 hPa 0,0 l/m 17,5 km/h (3 Bft) NW 0,00 h 0 W/m 12,2 C 9,4 C 17,5 km/h (3 Bft)
30.09.2007 18:00 13,7 C 87 % 1019,8 hPa 0,0 l/m 19,0 km/h (3 Bft) NW 0,00 h 0 W/m 11,6 C 8,5 C 19,0 km/h (3 Bft)
30.09.2007 19:00 13,3 C 86 % 1020,7 hPa 0,0 l/m 21,2 km/h (4 Bft) NW 0,00 h 0 W/m 11,0 C 7,3 C 21,2 km/h (4 Bft)
30.09.2007 20:00 13,2 C 85 % 1021,5 hPa 0,0 l/m 15,7 km/h (3 Bft) NW 0,00 h 0 W/m 10,8 C 8,8 C 15,7 km/h (3 Bft)
30.09.2007 21:00 13,2 C 84 % 1022,1 hPa 0,0 l/m 14,6 km/h (3 Bft) NW 0,00 h 0 W/m 10,5 C 9,2 C 14,6 km/h (3 Bft)
30.09.2007 22:00 12,7 C 84 % 1022,5 hPa 0,0 l/m 10,8 km/h (2 Bft) NW 0,00 h 0 W/m 10,1 C 10,3 C 10,8 km/h (2 Bft)
30.09.2007 23:00 12,2 C 84 % 1022,5 hPa 0,0 l/m 8,8 km/h (2 Bft) NW 0,00 h 0 W/m 9,6 C 10,8 C 8,8 km/h (2 Bft)
Min-Datum _ 27.09.07 24.09.07 29.09.07 - 26.09.07 - - - 27.09.07 25.09.07 26.09.07
_ Min-Zeit 04:21 15:05 05:57 - 18:40 - - - 01:51 09:00 18:40
Minimum _ 8,6 C 54 % 999,5 hPa - 0,0 km/h (0 Bft) - - - 7,6 C 2,8 C 0,0 km/h (0 Bft)
Max-Datum _ 24.09.07 29.09.07 30.09.07 29.09.07 24.09.07 - 24.09.07 24.09.07 29.09.07 24.09.07 24.09.07
_ Max-Zeit 14:50 05:07 21:27 04:02 18:50 - 00:00 00:00 11:37 13:05 18:50
Maximum _ 22,4 C 99 % 1022,5 hPa 3,0 l/m 42,7 km/h
W (6 Bft)
- 0,00 h 0 W/m 16,1 C 19,1 C 42,7 km/h
W (6 Bft)
Durchschnitt _ 13,6 C 88 % 1009,9 hPa #25,5 l/m 16,9 km/h (3 Bft) W #0 min. 0 W/m 11,6 C 9,4 C 16,9 km/h (3 Bft)
copyright by Holger Just